createdAt,value
2023-04-11T00:05:23.191Z,22.88
2023-04-11T00:11:25.922Z,26.95
2023-04-11T00:23:34.881Z,27.45
2023-04-11T00:29:37.457Z,31.65
2023-04-11T00:35:41.173Z,28.70
2023-04-11T00:41:43.782Z,33.92
2023-04-11T00:47:46.334Z,30.45
2023-04-11T00:53:48.762Z,27.23
2023-04-11T00:59:51.966Z,36.70
2023-04-11T01:05:54.900Z,28.13
2023-04-11T01:11:58.286Z,24.85
2023-04-11T01:18:02.539Z,25.33
2023-04-11T01:24:05.602Z,26.60
2023-04-11T01:36:10.924Z,26.55
2023-04-11T01:48:16.729Z,26.27
2023-04-11T01:54:21.032Z,22.05
2023-04-11T02:00:23.602Z,22.90
2023-04-11T02:06:28.257Z,25.60
2023-04-11T02:12:30.586Z,19.08
2023-04-11T02:18:33.199Z,22.55
2023-04-11T02:30:38.146Z,21.05
2023-04-11T02:36:42.042Z,24.23
2023-04-11T02:42:45.032Z,28.63
2023-04-11T02:48:47.173Z,18.02
2023-04-11T02:54:49.644Z,21.17
2023-04-11T03:00:52.119Z,18.98
2023-04-11T03:06:54.837Z,23.63
2023-04-11T03:12:57.374Z,16.58
2023-04-11T03:18:59.958Z,16.73
2023-04-11T03:25:02.709Z,16.33
2023-04-11T03:31:05.886Z,20.75
2023-04-11T03:37:08.374Z,17.85
2023-04-11T03:43:12.768Z,21.08
2023-04-11T03:49:16.189Z,16.90
2023-04-11T03:55:23.513Z,17.60
2023-04-11T04:01:26.382Z,17.80
2023-04-11T04:07:33.814Z,19.45
2023-04-11T04:13:46.796Z,15.32
2023-04-11T04:19:53.155Z,20.83
2023-04-11T04:25:58.581Z,12.65
2023-04-11T04:32:03.631Z,22.48
2023-04-11T04:38:18.268Z,17.65
2023-04-11T04:44:29.890Z,11.70
2023-04-11T04:50:38.174Z,15.45
2023-04-11T04:56:41.978Z,18.75
2023-04-11T05:02:48.444Z,16.20
2023-04-11T05:08:51.791Z,15.95
2023-04-11T05:20:59.448Z,12.50
2023-04-11T05:27:08.677Z,9.35
2023-04-11T05:39:17.397Z,17.38
2023-04-11T05:45:19.912Z,16.02
2023-04-11T05:51:22.302Z,13.82
2023-04-11T05:57:25.753Z,10.45
2023-04-11T06:03:28.606Z,12.32
2023-04-11T06:09:33.490Z,12.23
2023-04-11T06:15:36.444Z,13.73
2023-04-11T06:21:39.193Z,11.60
2023-04-11T06:33:44.180Z,12.20
2023-04-11T06:39:46.763Z,12.57
2023-04-11T06:45:50.126Z,13.38
2023-04-11T06:51:52.479Z,12.27
2023-04-11T06:57:55.061Z,12.65
2023-04-11T07:03:57.826Z,14.15
2023-04-11T07:10:00.799Z,7.03
2023-04-11T07:16:03.474Z,12.65
2023-04-11T07:22:05.975Z,15.15
2023-04-11T07:28:09.004Z,10.23
2023-04-11T07:34:11.890Z,11.52
2023-04-11T07:40:14.640Z,12.30
2023-04-11T07:46:17.669Z,10.68
2023-04-11T07:52:20.308Z,11.02
2023-04-11T07:58:22.846Z,8.07
2023-04-11T08:04:25.647Z,13.55
2023-04-11T08:10:31.716Z,8.07
2023-04-11T08:16:35.162Z,13.45
2023-04-11T08:22:37.643Z,8.30
2023-04-11T08:28:42.594Z,10.32
2023-04-11T08:34:45.852Z,5.68
2023-04-11T08:40:48.884Z,9.60
2023-04-11T08:46:51.267Z,9.70
2023-04-11T08:52:54.316Z,11.38
2023-04-11T08:58:57.273Z,12.25
2023-04-11T09:05:00.036Z,21.00
2023-04-11T09:11:02.670Z,12.82
2023-04-11T09:17:13.995Z,11.80
2023-04-11T09:23:25.452Z,6.55
2023-04-11T09:29:48.374Z,12.20
2023-04-11T09:35:53.443Z,11.68
2023-04-11T09:41:56.517Z,7.15
2023-04-11T09:47:59.692Z,7.35
2023-04-11T09:54:02.895Z,7.32
2023-04-11T10:00:16.443Z,7.30
2023-04-11T10:06:32.075Z,10.23
2023-04-11T10:12:35.642Z,8.32
2023-04-11T10:18:39.312Z,11.10
2023-04-11T10:25:02.185Z,13.80
2023-04-11T10:31:09.179Z,16.75
2023-04-11T10:37:13.187Z,9.40
2023-04-11T10:43:22.330Z,10.70
2023-04-11T10:49:36.180Z,9.77
2023-04-11T10:55:47.275Z,9.57
2023-04-11T11:01:56.566Z,10.52
2023-04-11T11:07:59.337Z,18.98
2023-04-11T11:20:10.587Z,10.98
2023-04-11T11:26:13.247Z,15.07
2023-04-11T11:38:28.379Z,6.68
2023-04-11T11:44:31.876Z,15.25
2023-04-11T11:50:34.560Z,11.85
2023-04-11T12:02:43.755Z,11.35
2023-04-11T12:08:52.079Z,11.32
2023-04-11T12:14:55.467Z,16.52
2023-04-11T12:20:59.222Z,17.05
2023-04-11T12:27:06.863Z,10.23
2023-04-11T12:33:10.619Z,9.65
2023-04-11T12:39:13.248Z,8.63
2023-04-11T12:45:19.352Z,14.85
2023-04-11T12:51:21.931Z,13.55
2023-04-11T12:57:24.635Z,9.77
2023-04-11T13:09:32.027Z,12.13
2023-04-11T13:15:34.800Z,9.23
2023-04-11T13:21:37.830Z,10.70
2023-04-11T13:27:41.476Z,9.25
2023-04-11T13:33:46.535Z,23.85
2023-04-11T13:39:49.164Z,13.57
2023-04-11T13:45:51.729Z,11.85
2023-04-11T13:51:54.631Z,17.92
2023-04-11T13:57:57.505Z,13.13
2023-04-11T14:04:00.836Z,29.30
2023-04-11T14:10:05.266Z,20.20
2023-04-11T14:16:09.487Z,17.52
2023-04-11T14:22:12.331Z,15.05
2023-04-11T14:28:14.899Z,16.00
2023-04-11T14:34:19.017Z,13.27
2023-04-11T14:40:21.805Z,16.13
2023-04-11T14:52:26.793Z,16.90
2023-04-11T14:58:29.159Z,20.08
2023-04-11T15:04:31.874Z,15.45
2023-04-11T15:10:34.366Z,18.23
2023-04-11T15:16:36.810Z,20.52
2023-04-11T15:22:41.404Z,17.42
2023-04-11T15:28:45.749Z,18.08
2023-04-11T15:34:51.214Z,23.00
2023-04-11T15:40:55.292Z,29.25
2023-04-11T15:46:57.681Z,19.77
2023-04-11T15:53:00.459Z,22.13
2023-04-11T16:05:06.002Z,15.27
2023-04-11T16:11:08.633Z,20.45
2023-04-11T16:17:10.871Z,18.25
2023-04-11T16:23:13.256Z,21.83
2023-04-11T16:29:15.991Z,20.35
2023-04-11T16:35:18.720Z,20.83
2023-04-11T16:41:21.527Z,20.73
2023-04-11T16:53:29.209Z,25.13
2023-04-11T16:59:31.932Z,17.00
2023-04-11T17:11:40.944Z,18.45
2023-04-11T17:17:44.963Z,17.95
2023-04-11T17:23:47.684Z,17.30
2023-04-11T17:29:50.713Z,16.27
2023-04-11T17:35:53.110Z,16.80
2023-04-11T17:41:57.828Z,25.17
2023-04-11T17:48:01.745Z,17.60
2023-04-11T17:54:04.397Z,20.67
2023-04-11T18:00:19.911Z,16.65
2023-04-11T18:06:22.725Z,21.35
2023-04-11T18:12:29.598Z,27.55
2023-04-11T18:18:32.323Z,17.58
2023-04-11T18:24:38.055Z,13.88
2023-04-11T18:30:40.595Z,21.90
2023-04-11T18:42:51.881Z,27.40
2023-04-11T18:48:55.630Z,26.95
2023-04-11T18:54:58.344Z,34.88
2023-04-11T19:01:15.659Z,28.23
2023-04-11T19:07:19.953Z,21.15
2023-04-11T19:13:22.408Z,16.10
2023-04-11T19:19:24.986Z,20.08
2023-04-11T19:25:28.001Z,18.27
2023-04-11T19:31:33.078Z,20.73
2023-04-11T19:37:36.755Z,24.77
2023-04-11T19:43:39.740Z,23.05
2023-04-11T19:49:43.361Z,26.33
2023-04-11T19:55:52.270Z,17.10
2023-04-11T20:01:54.952Z,16.50
2023-04-11T20:14:00.359Z,13.25
2023-04-11T20:26:09.852Z,13.65
2023-04-11T20:32:12.921Z,17.15
2023-04-11T20:38:15.713Z,15.00
2023-04-11T20:44:19.415Z,19.88
2023-04-11T20:50:22.021Z,21.13
2023-04-11T20:56:25.500Z,15.55
2023-04-11T21:02:28.532Z,17.55
2023-04-11T21:08:30.930Z,14.68
2023-04-11T21:14:33.855Z,17.73
2023-04-11T21:20:36.879Z,17.95
2023-04-11T21:26:39.391Z,19.60
2023-04-11T21:32:42.124Z,19.73
2023-04-11T21:44:46.841Z,19.95
2023-04-11T21:50:49.246Z,23.75
2023-04-11T21:56:52.251Z,17.30
2023-04-11T22:02:55.026Z,20.13
2023-04-11T22:08:58.707Z,16.70
2023-04-11T22:15:01.166Z,12.07
2023-04-11T22:21:03.603Z,13.15
2023-04-11T22:27:10.522Z,12.55
2023-04-11T22:33:16.992Z,10.85
2023-04-11T22:39:19.456Z,13.75
2023-04-11T22:45:23.359Z,10.02
2023-04-11T22:51:30.482Z,7.30
2023-04-11T22:57:32.643Z,10.50
2023-04-11T23:03:35.050Z,14.10
2023-04-11T23:09:37.772Z,9.93
2023-04-11T23:21:43.363Z,11.55
2023-04-11T23:27:46.132Z,7.78
2023-04-11T23:33:48.615Z,7.50
2023-04-11T23:39:50.851Z,5.68
2023-04-11T23:45:55.028Z,4.53
2023-04-11T23:51:57.472Z,5.80
2023-04-11T23:57:59.822Z,8.50
